sensor_id;sensor_type;location;lat;lon;timestamp;pressure;altitude;pressure_sealevel;temperature;humidity
62150;BME280;48134;53.586;10.610;2023-08-12T00:02:31;101151.16;;;17.58;100.00
62150;BME280;48134;53.586;10.610;2023-08-12T00:05:05;101151.00;;;17.63;100.00
62150;BME280;48134;53.586;10.610;2023-08-12T00:07:39;101146.44;;;17.59;100.00
62150;BME280;48134;53.586;10.610;2023-08-12T00:10:12;101159.09;;;17.60;100.00
62150;BME280;48134;53.586;10.610;2023-08-12T00:12:45;101134.66;;;17.58;100.00
62150;BME280;48134;53.586;10.610;2023-08-12T00:15:15;101143.69;;;17.59;100.00
62150;BME280;48134;53.586;10.610;2023-08-12T00:17:48;101141.59;;;17.56;100.00
62150;BME280;48134;53.586;10.610;2023-08-12T00:20:21;101151.63;;;17.60;100.00
62150;BME280;48134;53.586;10.610;2023-08-12T00:22:54;101143.88;;;17.62;100.00
62150;BME280;48134;53.586;10.610;2023-08-12T00:25:27;101133.69;;;17.63;100.00
62150;BME280;48134;53.586;10.610;2023-08-12T00:28:01;101122.19;;;17.61;100.00
62150;BME280;48134;53.586;10.610;2023-08-12T00:30:31;101119.88;;;17.54;100.00
62150;BME280;48134;53.586;10.610;2023-08-12T00:33:04;101119.56;;;17.56;100.00
62150;BME280;48134;53.586;10.610;2023-08-12T00:35:37;101114.19;;;17.50;100.00
62150;BME280;48134;53.586;10.610;2023-08-12T00:38:11;101115.50;;;17.53;100.00
62150;BME280;48134;53.586;10.610;2023-08-12T00:40:44;101120.50;;;17.51;100.00
62150;BME280;48134;53.586;10.610;2023-08-12T00:43:17;101121.59;;;17.41;100.00
62150;BME280;48134;53.586;10.610;2023-08-12T00:45:47;101122.91;;;17.44;100.00
62150;BME280;48134;53.586;10.610;2023-08-12T00:48:16;101108.69;;;17.50;100.00
62150;BME280;48134;53.586;10.610;2023-08-12T00:50:50;101108.88;;;17.54;100.00
62150;BME280;48134;53.586;10.610;2023-08-12T00:53:19;101113.53;;;17.45;100.00
62150;BME280;48134;53.586;10.610;2023-08-12T00:55:53;101108.53;;;17.47;100.00
62150;BME280;48134;53.586;10.610;2023-08-12T00:58:21;101113.22;;;17.46;100.00
62150;BME280;48134;53.586;10.610;2023-08-12T01:00:56;101108.34;;;17.43;100.00
62150;BME280;48134;53.586;10.610;2023-08-12T01:03:30;101108.31;;;17.34;100.00
62150;BME280;48134;53.586;10.610;2023-08-12T01:05:59;101101.41;;;17.46;100.00
62150;BME280;48134;53.586;10.610;2023-08-12T01:08:30;101102.97;;;17.38;100.00
62150;BME280;48134;53.586;10.610;2023-08-12T01:11:03;101109.56;;;17.28;100.00
62150;BME280;48134;53.586;10.610;2023-08-12T01:13:46;101102.09;;;17.29;100.00
62150;BME280;48134;53.586;10.610;2023-08-12T01:16:20;101098.09;;;17.35;100.00
62150;BME280;48134;53.586;10.610;2023-08-12T01:18:54;101108.44;;;17.29;100.00
62150;BME280;48134;53.586;10.610;2023-08-12T01:21:29;101087.09;;;17.35;100.00
62150;BME280;48134;53.586;10.610;2023-08-12T01:24:06;101101.41;;;17.23;100.00
62150;BME280;48134;53.586;10.610;2023-08-12T01:26:39;101092.72;;;17.30;100.00
62150;BME280;48134;53.586;10.610;2023-08-12T01:29:07;101091.38;;;17.19;100.00
62150;BME280;48134;53.586;10.610;2023-08-12T01:31:48;101082.31;;;17.18;100.00
62150;BME280;48134;53.586;10.610;2023-08-12T01:34:29;101090.41;;;17.23;100.00
62150;BME280;48134;53.586;10.610;2023-08-12T01:37:03;101088.94;;;17.17;100.00
62150;BME280;48134;53.586;10.610;2023-08-12T01:39:35;101087.16;;;17.12;100.00
62150;BME280;48134;53.586;10.610;2023-08-12T01:42:05;101080.03;;;17.11;100.00
62150;BME280;48134;53.586;10.610;2023-08-12T01:44:33;101079.69;;;17.13;100.00
62150;BME280;48134;53.586;10.610;2023-08-12T01:47:02;101073.41;;;17.12;100.00
62150;BME280;48134;53.586;10.610;2023-08-12T01:49:30;101071.94;;;17.15;100.00
62150;BME280;48134;53.586;10.610;2023-08-12T01:52:03;101070.50;;;17.17;100.00
62150;BME280;48134;53.586;10.610;2023-08-12T01:54:33;101069.34;;;17.10;100.00
62150;BME280;48134;53.586;10.610;2023-08-12T01:57:06;101076.28;;;17.07;100.00
62150;BME280;48134;53.586;10.610;2023-08-12T01:59:40;101058.78;;;17.03;100.00
62150;BME280;48134;53.586;10.610;2023-08-12T02:02:17;101062.97;;;17.00;100.00
62150;BME280;48134;53.586;10.610;2023-08-12T02:04:50;101063.75;;;17.01;100.00
62150;BME280;48134;53.586;10.610;2023-08-12T02:07:25;101065.19;;;16.98;100.00
62150;BME280;48134;53.586;10.610;2023-08-12T02:09:59;101060.84;;;16.97;100.00
62150;BME280;48134;53.586;10.610;2023-08-12T02:12:27;101060.34;;;16.95;100.00
62150;BME280;48134;53.586;10.610;2023-08-12T02:15:00;101060.66;;;16.94;100.00
62150;BME280;48134;53.586;10.610;2023-08-12T02:17:34;101057.09;;;16.93;100.00
62150;BME280;48134;53.586;10.610;2023-08-12T02:20:02;101053.72;;;16.96;100.00
62150;BME280;48134;53.586;10.610;2023-08-12T02:22:36;101053.53;;;16.93;100.00
62150;BME280;48134;53.586;10.610;2023-08-12T02:25:06;101048.75;;;16.84;100.00
62150;BME280;48134;53.586;10.610;2023-08-12T02:27:40;101037.28;;;16.82;100.00
62150;BME280;48134;53.586;10.610;2023-08-12T02:30:13;101034.16;;;16.75;100.00
62150;BME280;48134;53.586;10.610;2023-08-12T02:32:41;101026.03;;;16.70;100.00
62150;BME280;48134;53.586;10.610;2023-08-12T02:35:10;101016.34;;;16.73;100.00
62150;BME280;48134;53.586;10.610;2023-08-12T02:37:43;101030.72;;;16.70;100.00
62150;BME280;48134;53.586;10.610;2023-08-12T02:40:18;101022.97;;;16.72;100.00
62150;BME280;48134;53.586;10.610;2023-08-12T02:42:51;101020.97;;;16.63;100.00
62150;BME280;48134;53.586;10.610;2023-08-12T02:45:24;101018.22;;;16.63;100.00
62150;BME280;48134;53.586;10.610;2023-08-12T02:47:57;101021.78;;;16.64;100.00
62150;BME280;48134;53.586;10.610;2023-08-12T02:50:30;101010.41;;;16.57;100.00
62150;BME280;48134;53.586;10.610;2023-08-12T02:53:04;101018.66;;;16.57;100.00
62150;BME280;48134;53.586;10.610;2023-08-12T02:55:34;101015.91;;;16.57;100.00
62150;BME280;48134;53.586;10.610;2023-08-12T02:58:08;101012.69;;;16.55;100.00
62150;BME280;48134;53.586;10.610;2023-08-12T03:00:41;101014.91;;;16.53;100.00
62150;BME280;48134;53.586;10.610;2023-08-12T03:03:10;101011.69;;;16.51;100.00
62150;BME280;48134;53.586;10.610;2023-08-12T03:05:38;101010.03;;;16.49;100.00
62150;BME280;48134;53.586;10.610;2023-08-12T03:08:07;101013.59;;;16.50;100.00
62150;BME280;48134;53.586;10.610;2023-08-12T03:10:43;100998.56;;;16.47;100.00
62150;BME280;48134;53.586;10.610;2023-08-12T03:13:17;100995.13;;;16.42;100.00
62150;BME280;48134;53.586;10.610;2023-08-12T03:15:50;100999.31;;;16.39;100.00
62150;BME280;48134;53.586;10.610;2023-08-12T03:18:24;101005.94;;;16.38;100.00
62150;BME280;48134;53.586;10.610;2023-08-12T03:20:53;100998.91;;;16.32;100.00
62150;BME280;48134;53.586;10.610;2023-08-12T03:23:26;101000.06;;;16.31;100.00
62150;BME280;48134;53.586;10.610;2023-08-12T03:25:58;101008.31;;;16.31;100.00
62150;BME280;48134;53.586;10.610;2023-08-12T03:28:31;101001.19;;;16.30;100.00
62150;BME280;48134;53.586;10.610;2023-08-12T03:31:04;100999.75;;;16.32;100.00
62150;BME280;48134;53.586;10.610;2023-08-12T03:33:38;100987.94;;;16.32;100.00
62150;BME280;48134;53.586;10.610;2023-08-12T03:36:13;100995.84;;;16.33;100.00
62150;BME280;48134;53.586;10.610;2023-08-12T03:38:47;100989.38;;;16.29;100.00
62150;BME280;48134;53.586;10.610;2023-08-12T03:41:20;100980.84;;;16.31;100.00
62150;BME280;48134;53.586;10.610;2023-08-12T03:43:56;100987.44;;;16.30;100.00
62150;BME280;48134;53.586;10.610;2023-08-12T03:46:30;100987.56;;;16.25;100.00
62150;BME280;48134;53.586;10.610;2023-08-12T03:49:03;100995.78;;;16.25;100.00
62150;BME280;48134;53.586;10.610;2023-08-12T03:51:37;100994.78;;;16.21;100.00
62150;BME280;48134;53.586;10.610;2023-08-12T03:54:10;100993.16;;;16.20;100.00
62150;BME280;48134;53.586;10.610;2023-08-12T03:56:45;100984.44;;;16.18;100.00
62150;BME280;48134;53.586;10.610;2023-08-12T03:59:18;100993.16;;;16.20;100.00
62150;BME280;48134;53.586;10.610;2023-08-12T04:01:47;100983.59;;;16.17;100.00
62150;BME280;48134;53.586;10.610;2023-08-12T04:04:20;100989.09;;;16.17;100.00
62150;BME280;48134;53.586;10.610;2023-08-12T04:06:53;100980.75;;;16.22;100.00
62150;BME280;48134;53.586;10.610;2023-08-12T04:09:26;100968.44;;;16.20;100.00
62150;BME280;48134;53.586;10.610;2023-08-12T04:12:02;100979.94;;;16.22;100.00
62150;BME280;48134;53.586;10.610;2023-08-12T04:14:35;100976.09;;;16.23;100.00
62150;BME280;48134;53.586;10.610;2023-08-12T04:17:08;100969.44;;;16.24;100.00
62150;BME280;48134;53.586;10.610;2023-08-12T04:19:36;100962.53;;;16.26;100.00
62150;BME280;48134;53.586;10.610;2023-08-12T04:22:09;100964.97;;;16.28;100.00
62150;BME280;48134;53.586;10.610;2023-08-12T04:24:42;100972.59;;;16.31;100.00
62150;BME280;48134;53.586;10.610;2023-08-12T04:27:17;100978.38;;;16.29;100.00
62150;BME280;48134;53.586;10.610;2023-08-12T04:29:51;100967.59;;;16.33;100.00
62150;BME280;48134;53.586;10.610;2023-08-12T04:32:19;100970.84;;;16.35;100.00
62150;BME280;48134;53.586;10.610;2023-08-12T04:34:52;100971.84;;;16.39;100.00
62150;BME280;48134;53.586;10.610;2023-08-12T04:37:21;100972.84;;;16.43;100.00
62150;BME280;48134;53.586;10.610;2023-08-12T04:39:56;100974.09;;;16.37;100.00
62150;BME280;48134;53.586;10.610;2023-08-12T04:42:26;100975.28;;;16.45;100.00
62150;BME280;48134;53.586;10.610;2023-08-12T04:44:59;100961.66;;;16.40;100.00
62150;BME280;48134;53.586;10.610;2023-08-12T04:47:33;100971.84;;;16.39;100.00
62150;BME280;48134;53.586;10.610;2023-08-12T04:50:06;100966.53;;;16.43;100.00
62150;BME280;48134;53.586;10.610;2023-08-12T04:52:40;100954.09;;;16.45;100.00
62150;BME280;48134;53.586;10.610;2023-08-12T04:55:13;100959.28;;;16.47;100.00
62150;BME280;48134;53.586;10.610;2023-08-12T04:57:48;100970.91;;;16.44;100.00
62150;BME280;48134;53.586;10.610;2023-08-12T05:00:22;100956.66;;;16.42;100.00
62150;BME280;48134;53.586;10.610;2023-08-12T05:02:55;100979.63;;;16.46;100.00
62150;BME280;48134;53.586;10.610;2023-08-12T05:05:25;100986.69;;;16.38;100.00
62150;BME280;48134;53.586;10.610;2023-08-12T05:07:58;100990.63;;;16.46;100.00
62150;BME280;48134;53.586;10.610;2023-08-12T05:10:27;100991.81;;;16.54;100.00
62150;BME280;48134;53.586;10.610;2023-08-12T05:13:02;100988.75;;;16.78;100.00
62150;BME280;48134;53.586;10.610;2023-08-12T05:15:35;100995.41;;;16.86;100.00
62150;BME280;48134;53.586;10.610;2023-08-12T05:18:08;100992.09;;;16.75;100.00
62150;BME280;48134;53.586;10.610;2023-08-12T05:20:42;100996.69;;;16.79;100.00
62150;BME280;48134;53.586;10.610;2023-08-12T05:23:10;100992.63;;;16.77;100.00
62150;BME280;48134;53.586;10.610;2023-08-12T05:25:39;100983.19;;;16.69;100.00
62150;BME280;48134;53.586;10.610;2023-08-12T05:28:14;100969.13;;;16.71;100.00
62150;BME280;48134;53.586;10.610;2023-08-12T05:30:47;100960.56;;;16.72;100.00
62150;BME280;48134;53.586;10.610;2023-08-12T05:33:17;100955.25;;;16.76;100.00
62150;BME280;48134;53.586;10.610;2023-08-12T05:35:47;100955.78;;;16.78;100.00
62150;BME280;48134;53.586;10.610;2023-08-12T05:38:20;100942.94;;;16.96;100.00
62150;BME280;48134;53.586;10.610;2023-08-12T05:40:48;100948.06;;;16.89;100.00
62150;BME280;48134;53.586;10.610;2023-08-12T05:43:22;100963.72;;;16.88;100.00
62150;BME280;48134;53.586;10.610;2023-08-12T05:45:56;100965.88;;;16.91;100.00
62150;BME280;48134;53.586;10.610;2023-08-12T05:48:29;100965.06;;;16.91;100.00
62150;BME280;48134;53.586;10.610;2023-08-12T05:50:57;100961.22;;;16.92;100.00
62150;BME280;48134;53.586;10.610;2023-08-12T05:53:30;100949.63;;;16.81;100.00
62150;BME280;48134;53.586;10.610;2023-08-12T05:55:59;100950.22;;;16.92;100.00
62150;BME280;48134;53.586;10.610;2023-08-12T05:58:28;100948.75;;;16.94;100.00
62150;BME280;48134;53.586;10.610;2023-08-12T06:01:02;100950.44;;;17.04;100.00
62150;BME280;48134;53.586;10.610;2023-08-12T06:03:36;100954.31;;;17.12;100.00
62150;BME280;48134;53.586;10.610;2023-08-12T06:06:06;100958.69;;;17.13;100.00
62150;BME280;48134;53.586;10.610;2023-08-12T06:08:39;100967.09;;;17.08;100.00
62150;BME280;48134;53.586;10.610;2023-08-12T06:11:08;100957.59;;;17.14;100.00
62150;BME280;48134;53.586;10.610;2023-08-12T06:13:37;100966.19;;;17.21;100.00
62150;BME280;48134;53.586;10.610;2023-08-12T06:16:05;100969.91;;;17.25;100.00
62150;BME280;48134;53.586;10.610;2023-08-12T06:18:33;100972.78;;;17.20;100.00
62150;BME280;48134;53.586;10.610;2023-08-12T06:21:07;100962.97;;;17.28;100.00
62150;BME280;48134;53.586;10.610;2023-08-12T06:23:40;100966.53;;;17.28;100.00
62150;BME280;48134;53.586;10.610;2023-08-12T06:26:08;100964.09;;;17.36;100.00
62150;BME280;48134;53.586;10.610;2023-08-12T06:28:43;100964.63;;;17.38;100.00
62150;BME280;48134;53.586;10.610;2023-08-12T06:31:16;100970.91;;;17.38;100.00
62150;BME280;48134;53.586;10.610;2023-08-12T06:33:49;100971.25;;;17.45;100.00
62150;BME280;48134;53.586;10.610;2023-08-12T06:36:23;100967.88;;;17.48;100.00
62150;BME280;48134;53.586;10.610;2023-08-12T06:38:56;100972.75;;;17.51;100.00
62150;BME280;48134;53.586;10.610;2023-08-12T06:41:29;100970.16;;;17.55;100.00
62150;BME280;48134;53.586;10.610;2023-08-12T06:43:59;100958.66;;;17.62;100.00
62150;BME280;48134;53.586;10.610;2023-08-12T06:46:28;100957.38;;;17.59;100.00
62150;BME280;48134;53.586;10.610;2023-08-12T06:48:57;100962.91;;;17.68;100.00
62150;BME280;48134;53.586;10.610;2023-08-12T06:51:26;100961.78;;;17.69;100.00
62150;BME280;48134;53.586;10.610;2023-08-12T06:53:59;100960.31;;;17.72;100.00
62150;BME280;48134;53.586;10.610;2023-08-12T06:56:27;100955.47;;;17.77;100.00
62150;BME280;48134;53.586;10.610;2023-08-12T06:58:55;100952.06;;;17.80;100.00
62150;BME280;48134;53.586;10.610;2023-08-12T07:01:25;100948.03;;;17.87;100.00
62150;BME280;48134;53.586;10.610;2023-08-12T07:03:58;100949.00;;;17.91;100.00
62150;BME280;48134;53.586;10.610;2023-08-12T07:06:31;100943.38;;;17.96;100.00
62150;BME280;48134;53.586;10.610;2023-08-12T07:08:59;100943.03;;;17.97;100.00
62150;BME280;48134;53.586;10.610;2023-08-12T07:11:32;100949.69;;;18.05;100.00
62150;BME280;48134;53.586;10.610;2023-08-12T07:14:06;100953.09;;;18.11;100.00
62150;BME280;48134;53.586;10.610;2023-08-12T07:16:40;100946.44;;;18.03;100.00
62150;BME280;48134;53.586;10.610;2023-08-12T07:19:08;100947.28;;;18.04;100.00
62150;BME280;48134;53.586;10.610;2023-08-12T07:21:41;100945.31;;;18.13;100.00
62150;BME280;48134;53.586;10.610;2023-08-12T07:24:14;100950.16;;;18.16;100.00
62150;BME280;48134;53.586;10.610;2023-08-12T07:26:43;100936.56;;;18.19;100.00
62150;BME280;48134;53.586;10.610;2023-08-12T07:29:16;100936.38;;;18.16;100.00
62150;BME280;48134;53.586;10.610;2023-08-12T07:31:53;100925.22;;;18.21;100.00
62150;BME280;48134;53.586;10.610;2023-08-12T07:34:21;100929.91;;;18.29;100.00
62150;BME280;48134;53.586;10.610;2023-08-12T07:36:49;100936.03;;;18.35;100.00
62150;BME280;48134;53.586;10.610;2023-08-12T07:39:18;100932.31;;;18.48;100.00
62150;BME280;48134;53.586;10.610;2023-08-12T07:41:51;100926.31;;;18.38;100.00
62150;BME280;48134;53.586;10.610;2023-08-12T07:44:24;100923.88;;;18.45;100.00
62150;BME280;48134;53.586;10.610;2023-08-12T07:46:59;100920.97;;;18.41;100.00
62150;BME280;48134;53.586;10.610;2023-08-12T07:49:27;100914.81;;;18.44;100.00
62150;BME280;48134;53.586;10.610;2023-08-12T07:52:00;100910.88;;;18.54;100.00
62150;BME280;48134;53.586;10.610;2023-08-12T07:54:33;100910.66;;;18.77;100.00
62150;BME280;48134;53.586;10.610;2023-08-12T07:57:07;100909.84;;;18.76;100.00
62150;BME280;48134;53.586;10.610;2023-08-12T07:59:35;100911.31;;;18.74;100.00
62150;BME280;48134;53.586;10.610;2023-08-12T08:02:10;100912.94;;;18.75;100.00
62150;BME280;48134;53.586;10.610;2023-08-12T08:04:43;100915.84;;;18.78;100.00
62150;BME280;48134;53.586;10.610;2023-08-12T08:07:21;100923.66;;;18.67;100.00
62150;BME280;48134;53.586;10.610;2023-08-12T08:09:54;100916.19;;;18.68;100.00
62150;BME280;48134;53.586;10.610;2023-08-12T08:12:27;100925.38;;;18.81;100.00
62150;BME280;48134;53.586;10.610;2023-08-12T08:14:55;100919.41;;;18.88;100.00
62150;BME280;48134;53.586;10.610;2023-08-12T08:17:30;100925.69;;;18.97;100.00
62150;BME280;48134;53.586;10.610;2023-08-12T08:19:58;100917.75;;;18.95;100.00
62150;BME280;48134;53.586;10.610;2023-08-12T08:22:31;100918.19;;;19.06;100.00
62150;BME280;48134;53.586;10.610;2023-08-12T08:25:07;100916.91;;;19.03;100.00
62150;BME280;48134;53.586;10.610;2023-08-12T08:27:40;100913.16;;;19.08;100.00
62150;BME280;48134;53.586;10.610;2023-08-12T08:30:14;100914.44;;;19.11;100.00
62150;BME280;48134;53.586;10.610;2023-08-12T08:32:43;100910.88;;;19.10;100.00
62150;BME280;48134;53.586;10.610;2023-08-12T08:35:13;100914.94;;;19.13;100.00
62150;BME280;48134;53.586;10.610;2023-08-12T08:37:42;100915.38;;;19.15;100.00
62150;BME280;48134;53.586;10.610;2023-08-12T08:40:16;100904.16;;;19.20;100.00
62150;BME280;48134;53.586;10.610;2023-08-12T08:42:45;100912.44;;;19.20;100.00
62150;BME280;48134;53.586;10.610;2023-08-12T08:45:22;100907.69;;;19.29;100.00
62150;BME280;48134;53.586;10.610;2023-08-12T08:47:56;100911.06;;;19.35;100.00
62150;BME280;48134;53.586;10.610;2023-08-12T08:50:30;100919.63;;;19.42;100.00
62150;BME280;48134;53.586;10.610;2023-08-12T08:53:04;100928.84;;;19.46;100.00
62150;BME280;48134;53.586;10.610;2023-08-12T08:55:34;100926.28;;;19.41;100.00
62150;BME280;48134;53.586;10.610;2023-08-12T08:58:07;100910.53;;;19.42;100.00
62150;BME280;48134;53.586;10.610;2023-08-12T09:00:36;100910.41;;;19.38;100.00
62150;BME280;48134;53.586;10.610;2023-08-12T09:03:13;100916.78;;;19.51;100.00
62150;BME280;48134;53.586;10.610;2023-08-12T09:05:42;100921.97;;;19.52;100.00
62150;BME280;48134;53.586;10.610;2023-08-12T09:08:16;100923.06;;;19.60;100.00
62150;BME280;48134;53.586;10.610;2023-08-12T09:10:49;100920.25;;;19.69;100.00
62150;BME280;48134;53.586;10.610;2023-08-12T09:13:23;100915.22;;;19.71;100.00
62150;BME280;48134;53.586;10.610;2023-08-12T09:15:51;100907.19;;;19.78;100.00
62150;BME280;48134;53.586;10.610;2023-08-12T09:18:25;100904.28;;;19.75;100.00
62150;BME280;48134;53.586;10.610;2023-08-12T09:20:59;100892.19;;;19.88;100.00
62150;BME280;48134;53.586;10.610;2023-08-12T09:23:34;100898.19;;;19.90;100.00
62150;BME280;48134;53.586;10.610;2023-08-12T09:26:13;100891.94;;;19.81;100.00
62150;BME280;48134;53.586;10.610;2023-08-12T09:28:48;100885.38;;;20.07;100.00
62150;BME280;48134;53.586;10.610;2023-08-12T09:31:22;100899.34;;;20.22;100.00
62150;BME280;48134;53.586;10.610;2023-08-12T09:33:59;100889.31;;;20.18;100.00
62150;BME280;48134;53.586;10.610;2023-08-12T09:36:33;100890.81;;;20.15;100.00
62150;BME280;48134;53.586;10.610;2023-08-12T09:39:07;100887.25;;;20.27;100.00
62150;BME280;48134;53.586;10.610;2023-08-12T09:41:37;100889.72;;;20.29;100.00
62150;BME280;48134;53.586;10.610;2023-08-12T09:44:10;100887.50;;;20.22;100.00
62150;BME280;48134;53.586;10.610;2023-08-12T09:46:44;100891.69;;;20.07;100.00
62150;BME280;48134;53.586;10.610;2023-08-12T09:49:18;100887.91;;;20.12;100.00
62150;BME280;48134;53.586;10.610;2023-08-12T09:51:52;100886.69;;;20.21;100.00
62150;BME280;48134;53.586;10.610;2023-08-12T09:54:26;100887.13;;;20.11;100.00
62150;BME280;48134;53.586;10.610;2023-08-12T09:57:01;100896.94;;;20.21;100.00
62150;BME280;48134;53.586;10.610;2023-08-12T09:59:35;100902.22;;;20.14;100.00
62150;BME280;48134;53.586;10.610;2023-08-12T10:02:12;100891.22;;;20.05;100.00
62150;BME280;48134;53.586;10.610;2023-08-12T10:04:48;100891.75;;;20.19;100.00
62150;BME280;48134;53.586;10.610;2023-08-12T10:07:23;100886.59;;;20.30;100.00
62150;BME280;48134;53.586;10.610;2023-08-12T10:09:52;100882.91;;;20.72;100.00
62150;BME280;48134;53.586;10.610;2023-08-12T10:12:27;100880.72;;;20.90;100.00
62150;BME280;48134;53.586;10.610;2023-08-12T10:15:00;100874.72;;;20.88;100.00
62150;BME280;48134;53.586;10.610;2023-08-12T10:17:34;100871.38;;;20.82;100.00
62150;BME280;48134;53.586;10.610;2023-08-12T10:20:13;100869.78;;;20.81;100.00
62150;BME280;48134;53.586;10.610;2023-08-12T10:22:46;100868.25;;;20.84;100.00
62150;BME280;48134;53.586;10.610;2023-08-12T10:25:18;100862.97;;;20.79;100.00
62150;BME280;48134;53.586;10.610;2023-08-12T10:27:49;100863.34;;;20.77;100.00
62150;BME280;48134;53.586;10.610;2023-08-12T10:30:22;100859.16;;;20.83;100.00
62150;BME280;48134;53.586;10.610;2023-08-12T10:32:50;100852.25;;;21.02;100.00
62150;BME280;48134;53.586;10.610;2023-08-12T10:35:40;100856.88;;;20.85;100.00
62150;BME280;48134;53.586;10.610;2023-08-12T10:38:17;100846.47;;;20.82;100.00
62150;BME280;48134;53.586;10.610;2023-08-12T10:40:45;100845.69;;;20.82;100.00
62150;BME280;48134;53.586;10.610;2023-08-12T10:43:18;100840.84;;;20.79;100.00
62150;BME280;48134;53.586;10.610;2023-08-12T10:45:52;100832.66;;;20.82;100.00
62150;BME280;48134;53.586;10.610;2023-08-12T10:48:22;100828.63;;;20.92;100.00
62150;BME280;48134;53.586;10.610;2023-08-12T10:50:53;100836.47;;;20.90;100.00
62150;BME280;48134;53.586;10.610;2023-08-12T10:53:24;100832.31;;;20.96;100.00
62150;BME280;48134;53.586;10.610;2023-08-12T10:56:03;100827.59;;;20.97;100.00
62150;BME280;48134;53.586;10.610;2023-08-12T10:58:45;100824.94;;;20.88;100.00
62150;BME280;48134;53.586;10.610;2023-08-12T11:01:19;100824.34;;;20.95;100.00
62150;BME280;48134;53.586;10.610;2023-08-12T11:03:52;100827.25;;;20.86;100.00
62150;BME280;48134;53.586;10.610;2023-08-12T11:06:28;100822.28;;;20.92;100.00
62150;BME280;48134;53.586;10.610;2023-08-12T11:09:01;100826.44;;;20.98;100.00
62150;BME280;48134;53.586;10.610;2023-08-12T11:11:34;100820.63;;;21.15;100.00
62150;BME280;48134;53.586;10.610;2023-08-12T11:14:13;100819.13;;;21.30;100.00
62150;BME280;48134;53.586;10.610;2023-08-12T11:16:42;100818.72;;;21.44;100.00
62150;BME280;48134;53.586;10.610;2023-08-12T11:19:11;100815.16;;;21.44;100.00
62150;BME280;48134;53.586;10.610;2023-08-12T11:21:41;100807.53;;;21.53;100.00
62150;BME280;48134;53.586;10.610;2023-08-12T11:24:16;100813.19;;;21.56;100.00
62150;BME280;48134;53.586;10.610;2023-08-12T11:26:49;100821.25;;;21.62;100.00
62150;BME280;48134;53.586;10.610;2023-08-12T11:29:24;100814.09;;;21.61;100.00
62150;BME280;48134;53.586;10.610;2023-08-12T11:31:52;100808.16;;;21.74;100.00
62150;BME280;48134;53.586;10.610;2023-08-12T11:34:20;100818.16;;;21.79;100.00
62150;BME280;48134;53.586;10.610;2023-08-12T11:36:56;100815.31;;;21.76;100.00
62150;BME280;48134;53.586;10.610;2023-08-12T11:39:29;100811.81;;;21.79;100.00
62150;BME280;48134;53.586;10.610;2023-08-12T11:42:03;100808.88;;;21.71;100.00
62150;BME280;48134;53.586;10.610;2023-08-12T11:44:36;100803.56;;;21.66;100.00
62150;BME280;48134;53.586;10.610;2023-08-12T11:47:04;100803.22;;;21.68;100.00
62150;BME280;48134;53.586;10.610;2023-08-12T11:49:33;100800.97;;;21.57;100.00
62150;BME280;48134;53.586;10.610;2023-08-12T11:52:09;100795.19;;;21.50;100.00
62150;BME280;48134;53.586;10.610;2023-08-12T11:54:49;100808.59;;;21.36;100.00
62150;BME280;48134;53.586;10.610;2023-08-12T11:57:18;100806.22;;;21.22;100.00
62150;BME280;48134;53.586;10.610;2023-08-12T11:59:47;100799.56;;;21.11;100.00
62150;BME280;48134;53.586;10.610;2023-08-12T12:02:18;100791.28;;;20.98;100.00
62150;BME280;48134;53.586;10.610;2023-08-12T12:04:51;100791.63;;;20.97;100.00
62150;BME280;48134;53.586;10.610;2023-08-12T12:07:26;100790.81;;;20.96;100.00
62150;BME280;48134;53.586;10.610;2023-08-12T12:09:59;100791.16;;;20.95;100.00
62150;BME280;48134;53.586;10.610;2023-08-12T12:12:27;100790.72;;;20.93;100.00
62150;BME280;48134;53.586;10.610;2023-08-12T12:15:01;100783.22;;;20.93;100.00
62150;BME280;48134;53.586;10.610;2023-08-12T12:17:38;100781.38;;;20.85;100.00
62150;BME280;48134;53.586;10.610;2023-08-12T12:20:12;100774.56;;;20.82;100.00
62150;BME280;48134;53.586;10.610;2023-08-12T12:22:47;100772.16;;;20.81;100.00
62150;BME280;48134;53.586;10.610;2023-08-12T12:25:22;100787.25;;;20.83;100.00
62150;BME280;48134;53.586;10.610;2023-08-12T12:27:58;100777.69;;;20.81;100.00
62150;BME280;48134;53.586;10.610;2023-08-12T12:30:32;100772.06;;;20.77;100.00
62150;BME280;48134;53.586;10.610;2023-08-12T12:33:05;100770.44;;;20.76;100.00
62150;BME280;48134;53.586;10.610;2023-08-12T12:35:38;100762.94;;;20.77;100.00
62150;BME280;48134;53.586;10.610;2023-08-12T12:38:07;100756.16;;;20.74;100.00
62150;BME280;48134;53.586;10.610;2023-08-12T12:40:35;100763.06;;;20.80;100.00
62150;BME280;48134;53.586;10.610;2023-08-12T12:43:09;100747.38;;;20.84;100.00
62150;BME280;48134;53.586;10.610;2023-08-12T12:45:37;100738.53;;;20.79;100.00
62150;BME280;48134;53.586;10.610;2023-08-12T12:48:11;100733.78;;;20.79;100.00
62150;BME280;48134;53.586;10.610;2023-08-12T12:50:44;100733.31;;;20.89;100.00
62150;BME280;48134;53.586;10.610;2023-08-12T12:53:14;100724.75;;;20.95;100.00
62150;BME280;48134;53.586;10.610;2023-08-12T12:55:42;100725.81;;;20.90;100.00
62150;BME280;48134;53.586;10.610;2023-08-12T12:58:16;100715.19;;;20.92;100.00